sensor_id;sensor_type;location;lat;lon;timestamp;P1;durP1;ratioP1;P2;durP2;ratioP2
52972;SDS011;38837;48.916;2.336;2023-07-31T00:01:16;6.35;;;2.85;;
52972;SDS011;38837;48.916;2.336;2023-07-31T00:03:17;5.82;;;3.42;;
52972;SDS011;38837;48.916;2.336;2023-07-31T00:05:19;5.25;;;2.33;;
52972;SDS011;38837;48.916;2.336;2023-07-31T00:07:22;6.22;;;3.05;;
52972;SDS011;38837;48.916;2.336;2023-07-31T00:09:23;6.28;;;2.78;;
52972;SDS011;38837;48.916;2.336;2023-07-31T00:11:26;8.40;;;3.33;;
52972;SDS011;38837;48.916;2.336;2023-07-31T00:13:27;5.82;;;2.90;;
52972;SDS011;38837;48.916;2.336;2023-07-31T00:15:29;9.02;;;2.90;;
52972;SDS011;38837;48.916;2.336;2023-07-31T00:17:31;6.03;;;2.92;;
52972;SDS011;38837;48.916;2.336;2023-07-31T00:19:33;5.57;;;2.78;;
52972;SDS011;38837;48.916;2.336;2023-07-31T00:21:35;7.28;;;3.13;;
52972;SDS011;38837;48.916;2.336;2023-07-31T00:23:37;7.38;;;3.70;;
52972;SDS011;38837;48.916;2.336;2023-07-31T00:25:39;7.85;;;3.05;;
52972;SDS011;38837;48.916;2.336;2023-07-31T00:27:41;5.20;;;3.00;;
52972;SDS011;38837;48.916;2.336;2023-07-31T00:29:45;6.28;;;3.25;;
52972;SDS011;38837;48.916;2.336;2023-07-31T00:31:47;6.32;;;2.90;;
52972;SDS011;38837;48.916;2.336;2023-07-31T00:33:49;5.65;;;2.75;;
52972;SDS011;38837;48.916;2.336;2023-07-31T00:35:51;8.57;;;3.30;;
52972;SDS011;38837;48.916;2.336;2023-07-31T00:37:53;5.85;;;2.65;;
52972;SDS011;38837;48.916;2.336;2023-07-31T00:39:55;6.78;;;3.13;;
52972;SDS011;38837;48.916;2.336;2023-07-31T00:41:57;7.25;;;3.47;;
52972;SDS011;38837;48.916;2.336;2023-07-31T00:43:59;7.65;;;3.20;;
52972;SDS011;38837;48.916;2.336;2023-07-31T00:46:01;7.25;;;2.78;;
52972;SDS011;38837;48.916;2.336;2023-07-31T00:48:03;6.35;;;3.08;;
52972;SDS011;38837;48.916;2.336;2023-07-31T00:50:08;8.50;;;3.58;;
52972;SDS011;38837;48.916;2.336;2023-07-31T00:52:10;8.27;;;3.40;;
52972;SDS011;38837;48.916;2.336;2023-07-31T00:54:11;6.68;;;3.20;;
52972;SDS011;38837;48.916;2.336;2023-07-31T00:56:13;6.47;;;3.38;;
52972;SDS011;38837;48.916;2.336;2023-07-31T00:58:16;5.75;;;2.70;;
52972;SDS011;38837;48.916;2.336;2023-07-31T01:00:21;7.35;;;3.53;;
52972;SDS011;38837;48.916;2.336;2023-07-31T01:02:23;6.55;;;3.38;;
52972;SDS011;38837;48.916;2.336;2023-07-31T01:04:25;6.68;;;3.47;;
52972;SDS011;38837;48.916;2.336;2023-07-31T01:08:50;5.30;;;2.92;;
52972;SDS011;38837;48.916;2.336;2023-07-31T01:11:37;5.68;;;3.05;;
52972;SDS011;38837;48.916;2.336;2023-07-31T01:13:31;7.47;;;3.35;;
52972;SDS011;38837;48.916;2.336;2023-07-31T01:15:33;5.15;;;2.92;;
52972;SDS011;38837;48.916;2.336;2023-07-31T01:17:35;5.78;;;3.03;;
52972;SDS011;38837;48.916;2.336;2023-07-31T01:19:40;7.60;;;3.58;;
52972;SDS011;38837;48.916;2.336;2023-07-31T01:24:30;7.75;;;2.95;;
52972;SDS011;38837;48.916;2.336;2023-07-31T01:26:45;7.90;;;3.15;;
52972;SDS011;38837;48.916;2.336;2023-07-31T01:29:00;6.40;;;3.08;;
52972;SDS011;38837;48.916;2.336;2023-07-31T01:31:08;8.55;;;3.60;;
52972;SDS011;38837;48.916;2.336;2023-07-31T01:33:13;6.10;;;2.97;;
52972;SDS011;38837;48.916;2.336;2023-07-31T01:35:17;5.97;;;3.00;;
52972;SDS011;38837;48.916;2.336;2023-07-31T01:37:19;3.85;;;2.60;;
52972;SDS011;38837;48.916;2.336;2023-07-31T01:39:20;10.43;;;3.40;;
52972;SDS011;38837;48.916;2.336;2023-07-31T01:41:23;6.18;;;3.00;;
52972;SDS011;38837;48.916;2.336;2023-07-31T01:43:25;6.55;;;3.40;;
52972;SDS011;38837;48.916;2.336;2023-07-31T01:45:27;6.32;;;2.67;;
52972;SDS011;38837;48.916;2.336;2023-07-31T01:47:28;5.45;;;2.95;;
52972;SDS011;38837;48.916;2.336;2023-07-31T01:49:30;6.43;;;3.63;;
52972;SDS011;38837;48.916;2.336;2023-07-31T01:51:32;7.07;;;3.30;;
52972;SDS011;38837;48.916;2.336;2023-07-31T01:53:35;7.63;;;3.13;;
52972;SDS011;38837;48.916;2.336;2023-07-31T01:55:37;9.02;;;3.47;;
52972;SDS011;38837;48.916;2.336;2023-07-31T01:57:44;7.13;;;3.45;;
52972;SDS011;38837;48.916;2.336;2023-07-31T01:59:46;6.10;;;3.10;;
52972;SDS011;38837;48.916;2.336;2023-07-31T02:01:48;7.20;;;3.40;;
52972;SDS011;38837;48.916;2.336;2023-07-31T02:03:50;5.55;;;2.90;;
52972;SDS011;38837;48.916;2.336;2023-07-31T02:05:53;6.78;;;3.03;;
52972;SDS011;38837;48.916;2.336;2023-07-31T02:07:55;6.20;;;3.08;;
52972;SDS011;38837;48.916;2.336;2023-07-31T02:09:57;7.30;;;3.33;;
52972;SDS011;38837;48.916;2.336;2023-07-31T02:11:59;6.70;;;2.80;;
52972;SDS011;38837;48.916;2.336;2023-07-31T02:14:01;7.32;;;2.88;;
52972;SDS011;38837;48.916;2.336;2023-07-31T02:16:03;9.45;;;3.28;;
52972;SDS011;38837;48.916;2.336;2023-07-31T02:18:05;7.88;;;3.13;;
52972;SDS011;38837;48.916;2.336;2023-07-31T02:20:07;9.45;;;2.65;;
52972;SDS011;38837;48.916;2.336;2023-07-31T02:22:09;5.55;;;2.80;;
52972;SDS011;38837;48.916;2.336;2023-07-31T02:24:11;8.35;;;3.10;;
52972;SDS011;38837;48.916;2.336;2023-07-31T02:26:13;5.97;;;3.15;;
52972;SDS011;38837;48.916;2.336;2023-07-31T02:28:15;7.50;;;3.10;;
52972;SDS011;38837;48.916;2.336;2023-07-31T02:30:17;7.55;;;3.20;;
52972;SDS011;38837;48.916;2.336;2023-07-31T02:32:19;5.70;;;3.13;;
52972;SDS011;38837;48.916;2.336;2023-07-31T02:34:21;4.57;;;2.75;;
52972;SDS011;38837;48.916;2.336;2023-07-31T02:36:23;5.07;;;2.40;;
52972;SDS011;38837;48.916;2.336;2023-07-31T02:38:24;7.07;;;3.05;;
52972;SDS011;38837;48.916;2.336;2023-07-31T02:40:26;5.38;;;3.00;;
52972;SDS011;38837;48.916;2.336;2023-07-31T02:42:28;5.47;;;2.80;;
52972;SDS011;38837;48.916;2.336;2023-07-31T02:44:30;7.03;;;3.05;;
52972;SDS011;38837;48.916;2.336;2023-07-31T02:46:32;6.13;;;2.58;;
52972;SDS011;38837;48.916;2.336;2023-07-31T02:48:34;6.25;;;3.15;;
52972;SDS011;38837;48.916;2.336;2023-07-31T02:50:35;8.05;;;3.13;;
52972;SDS011;38837;48.916;2.336;2023-07-31T02:52:37;6.57;;;2.75;;
52972;SDS011;38837;48.916;2.336;2023-07-31T02:54:39;9.05;;;2.67;;
52972;SDS011;38837;48.916;2.336;2023-07-31T02:56:41;6.18;;;2.55;;
52972;SDS011;38837;48.916;2.336;2023-07-31T02:58:43;7.07;;;2.97;;
52972;SDS011;38837;48.916;2.336;2023-07-31T03:00:45;7.25;;;3.08;;
52972;SDS011;38837;48.916;2.336;2023-07-31T03:02:47;7.25;;;3.22;;
52972;SDS011;38837;48.916;2.336;2023-07-31T03:04:49;6.75;;;2.60;;
52972;SDS011;38837;48.916;2.336;2023-07-31T03:06:51;7.80;;;2.60;;
52972;SDS011;38837;48.916;2.336;2023-07-31T03:08:53;6.03;;;2.28;;
52972;SDS011;38837;48.916;2.336;2023-07-31T03:10:56;5.68;;;2.70;;
52972;SDS011;38837;48.916;2.336;2023-07-31T03:12:58;5.65;;;2.47;;
52972;SDS011;38837;48.916;2.336;2023-07-31T03:15:00;6.47;;;2.67;;
52972;SDS011;38837;48.916;2.336;2023-07-31T03:17:02;4.57;;;2.67;;
52972;SDS011;38837;48.916;2.336;2023-07-31T03:19:04;4.88;;;2.38;;
52972;SDS011;38837;48.916;2.336;2023-07-31T03:21:06;5.50;;;2.70;;
52972;SDS011;38837;48.916;2.336;2023-07-31T03:23:08;4.43;;;2.42;;
52972;SDS011;38837;48.916;2.336;2023-07-31T03:25:09;4.22;;;2.58;;
52972;SDS011;38837;48.916;2.336;2023-07-31T03:27:11;5.10;;;2.72;;
52972;SDS011;38837;48.916;2.336;2023-07-31T03:29:13;4.90;;;2.20;;
52972;SDS011;38837;48.916;2.336;2023-07-31T03:31:15;5.28;;;2.30;;
52972;SDS011;38837;48.916;2.336;2023-07-31T03:33:17;3.75;;;2.28;;
52972;SDS011;38837;48.916;2.336;2023-07-31T03:35:19;3.88;;;2.50;;
52972;SDS011;38837;48.916;2.336;2023-07-31T03:37:21;5.72;;;2.47;;
52972;SDS011;38837;48.916;2.336;2023-07-31T03:39:22;4.60;;;2.70;;
52972;SDS011;38837;48.916;2.336;2023-07-31T03:41:25;4.03;;;2.20;;
52972;SDS011;38837;48.916;2.336;2023-07-31T03:43:26;5.55;;;2.28;;
52972;SDS011;38837;48.916;2.336;2023-07-31T03:45:29;4.22;;;2.15;;
52972;SDS011;38837;48.916;2.336;2023-07-31T03:47:30;5.20;;;2.03;;
52972;SDS011;38837;48.916;2.336;2023-07-31T03:49:32;4.68;;;2.42;;
52972;SDS011;38837;48.916;2.336;2023-07-31T03:51:34;6.45;;;2.42;;
52972;SDS011;38837;48.916;2.336;2023-07-31T03:53:36;4.93;;;2.40;;
52972;SDS011;38837;48.916;2.336;2023-07-31T03:55:38;3.47;;;2.08;;
52972;SDS011;38837;48.916;2.336;2023-07-31T03:57:40;9.32;;;2.80;;
52972;SDS011;38837;48.916;2.336;2023-07-31T03:59:42;5.82;;;2.28;;
52972;SDS011;38837;48.916;2.336;2023-07-31T04:01:44;6.65;;;2.65;;
52972;SDS011;38837;48.916;2.336;2023-07-31T04:03:46;4.18;;;2.17;;
52972;SDS011;38837;48.916;2.336;2023-07-31T04:05:48;5.53;;;2.65;;
52972;SDS011;38837;48.916;2.336;2023-07-31T04:07:50;7.43;;;2.78;;
52972;SDS011;38837;48.916;2.336;2023-07-31T04:09:51;6.50;;;2.35;;
52972;SDS011;38837;48.916;2.336;2023-07-31T04:11:53;5.55;;;2.58;;
52972;SDS011;38837;48.916;2.336;2023-07-31T04:13:55;3.70;;;2.25;;
52972;SDS011;38837;48.916;2.336;2023-07-31T04:15:57;6.95;;;2.55;;
52972;SDS011;38837;48.916;2.336;2023-07-31T04:17:59;3.80;;;2.15;;
52972;SDS011;38837;48.916;2.336;2023-07-31T04:20:01;5.57;;;2.20;;
52972;SDS011;38837;48.916;2.336;2023-07-31T04:22:03;5.70;;;2.65;;
52972;SDS011;38837;48.916;2.336;2023-07-31T04:24:05;5.20;;;2.75;;
52972;SDS011;38837;48.916;2.336;2023-07-31T04:26:07;6.13;;;3.35;;
52972;SDS011;38837;48.916;2.336;2023-07-31T04:28:09;6.25;;;2.63;;
52972;SDS011;38837;48.916;2.336;2023-07-31T04:30:12;4.17;;;2.43;;
52972;SDS011;38837;48.916;2.336;2023-07-31T04:32:14;7.85;;;2.47;;
52972;SDS011;38837;48.916;2.336;2023-07-31T04:34:19;4.90;;;2.63;;
52972;SDS011;38837;48.916;2.336;2023-07-31T04:36:21;7.88;;;3.08;;
52972;SDS011;38837;48.916;2.336;2023-07-31T04:38:23;5.18;;;2.35;;
52972;SDS011;38837;48.916;2.336;2023-07-31T04:40:25;6.32;;;2.95;;
52972;SDS011;38837;48.916;2.336;2023-07-31T04:42:27;8.32;;;3.45;;
52972;SDS011;38837;48.916;2.336;2023-07-31T04:44:29;8.15;;;2.70;;
52972;SDS011;38837;48.916;2.336;2023-07-31T04:46:31;7.90;;;3.20;;
52972;SDS011;38837;48.916;2.336;2023-07-31T04:48:33;4.80;;;2.70;;
52972;SDS011;38837;48.916;2.336;2023-07-31T04:50:35;8.07;;;2.90;;
52972;SDS011;38837;48.916;2.336;2023-07-31T04:52:37;8.77;;;2.92;;
52972;SDS011;38837;48.916;2.336;2023-07-31T04:54:39;5.50;;;2.88;;
52972;SDS011;38837;48.916;2.336;2023-07-31T04:56:41;8.60;;;3.42;;
52972;SDS011;38837;48.916;2.336;2023-07-31T04:58:43;7.95;;;2.80;;
52972;SDS011;38837;48.916;2.336;2023-07-31T05:00:44;6.70;;;3.17;;
52972;SDS011;38837;48.916;2.336;2023-07-31T05:02:46;10.65;;;3.15;;
52972;SDS011;38837;48.916;2.336;2023-07-31T05:04:48;7.78;;;2.80;;
52972;SDS011;38837;48.916;2.336;2023-07-31T05:06:50;5.03;;;2.88;;
52972;SDS011;38837;48.916;2.336;2023-07-31T05:08:52;8.13;;;3.53;;
52972;SDS011;38837;48.916;2.336;2023-07-31T05:10:54;10.45;;;3.40;;
52972;SDS011;38837;48.916;2.336;2023-07-31T05:12:56;10.05;;;3.60;;
52972;SDS011;38837;48.916;2.336;2023-07-31T05:14:58;12.00;;;4.03;;
52972;SDS011;38837;48.916;2.336;2023-07-31T05:17:00;7.68;;;3.28;;
52972;SDS011;38837;48.916;2.336;2023-07-31T05:19:02;10.95;;;4.20;;
52972;SDS011;38837;48.916;2.336;2023-07-31T05:21:04;9.05;;;3.05;;
52972;SDS011;38837;48.916;2.336;2023-07-31T05:23:06;5.82;;;3.05;;
52972;SDS011;38837;48.916;2.336;2023-07-31T05:25:08;7.25;;;3.30;;
52972;SDS011;38837;48.916;2.336;2023-07-31T05:27:10;8.73;;;3.63;;
52972;SDS011;38837;48.916;2.336;2023-07-31T05:29:13;11.30;;;4.35;;
52972;SDS011;38837;48.916;2.336;2023-07-31T05:31:15;10.63;;;3.92;;
52972;SDS011;38837;48.916;2.336;2023-07-31T05:33:17;6.68;;;3.63;;
52972;SDS011;38837;48.916;2.336;2023-07-31T05:35:19;8.20;;;3.55;;
52972;SDS011;38837;48.916;2.336;2023-07-31T05:37:21;8.25;;;3.63;;
52972;SDS011;38837;48.916;2.336;2023-07-31T05:39:23;10.35;;;3.72;;
52972;SDS011;38837;48.916;2.336;2023-07-31T05:41:25;7.72;;;3.75;;
52972;SDS011;38837;48.916;2.336;2023-07-31T05:43:27;9.77;;;3.90;;
52972;SDS011;38837;48.916;2.336;2023-07-31T05:45:29;10.35;;;4.00;;
52972;SDS011;38837;48.916;2.336;2023-07-31T05:47:31;8.27;;;3.47;;
52972;SDS011;38837;48.916;2.336;2023-07-31T05:49:33;11.23;;;3.97;;
52972;SDS011;38837;48.916;2.336;2023-07-31T05:51:35;8.02;;;3.88;;
52972;SDS011;38837;48.916;2.336;2023-07-31T05:53:37;10.25;;;3.80;;
52972;SDS011;38837;48.916;2.336;2023-07-31T05:55:42;10.77;;;4.20;;
52972;SDS011;38837;48.916;2.336;2023-07-31T05:57:44;13.60;;;4.22;;
52972;SDS011;38837;48.916;2.336;2023-07-31T05:59:47;8.88;;;4.18;;
52972;SDS011;38837;48.916;2.336;2023-07-31T06:01:49;7.50;;;3.67;;
52972;SDS011;38837;48.916;2.336;2023-07-31T06:03:51;10.85;;;4.00;;
52972;SDS011;38837;48.916;2.336;2023-07-31T06:05:53;11.48;;;4.50;;
52972;SDS011;38837;48.916;2.336;2023-07-31T06:07:54;8.70;;;3.90;;
52972;SDS011;38837;48.916;2.336;2023-07-31T06:09:56;10.73;;;3.88;;
52972;SDS011;38837;48.916;2.336;2023-07-31T06:12:04;13.55;;;5.03;;
52972;SDS011;38837;48.916;2.336;2023-07-31T06:14:06;11.73;;;4.47;;
52972;SDS011;38837;48.916;2.336;2023-07-31T06:16:08;10.15;;;4.60;;
52972;SDS011;38837;48.916;2.336;2023-07-31T06:18:10;9.85;;;4.00;;
52972;SDS011;38837;48.916;2.336;2023-07-31T06:20:12;13.18;;;4.20;;
52972;SDS011;38837;48.916;2.336;2023-07-31T06:22:14;9.48;;;4.35;;
52972;SDS011;38837;48.916;2.336;2023-07-31T06:24:16;12.23;;;4.95;;
52972;SDS011;38837;48.916;2.336;2023-07-31T06:26:21;10.40;;;4.72;;
52972;SDS011;38837;48.916;2.336;2023-07-31T06:28:27;8.20;;;4.55;;
52972;SDS011;38837;48.916;2.336;2023-07-31T06:30:32;12.57;;;5.32;;
52972;SDS011;38837;48.916;2.336;2023-07-31T06:32:34;11.45;;;4.32;;
52972;SDS011;38837;48.916;2.336;2023-07-31T06:34:37;11.35;;;4.53;;
52972;SDS011;38837;48.916;2.336;2023-07-31T06:36:39;11.75;;;4.57;;
52972;SDS011;38837;48.916;2.336;2023-07-31T06:38:41;10.25;;;4.50;;
52972;SDS011;38837;48.916;2.336;2023-07-31T06:40:43;10.35;;;4.47;;
52972;SDS011;38837;48.916;2.336;2023-07-31T06:42:45;10.30;;;4.65;;
52972;SDS011;38837;48.916;2.336;2023-07-31T06:44:47;12.18;;;4.72;;
52972;SDS011;38837;48.916;2.336;2023-07-31T06:46:49;10.75;;;4.88;;
52972;SDS011;38837;48.916;2.336;2023-07-31T06:48:50;15.20;;;5.18;;
52972;SDS011;38837;48.916;2.336;2023-07-31T06:50:52;17.48;;;5.20;;
52972;SDS011;38837;48.916;2.336;2023-07-31T06:52:54;11.55;;;4.68;;
52972;SDS011;38837;48.916;2.336;2023-07-31T06:55:03;14.85;;;4.80;;
52972;SDS011;38837;48.916;2.336;2023-07-31T06:57:17;10.05;;;4.60;;
52972;SDS011;38837;48.916;2.336;2023-07-31T06:59:19;9.32;;;4.55;;
52972;SDS011;38837;48.916;2.336;2023-07-31T07:01:21;16.92;;;6.30;;
52972;SDS011;38837;48.916;2.336;2023-07-31T07:03:23;11.93;;;4.55;;
52972;SDS011;38837;48.916;2.336;2023-07-31T07:05:25;14.32;;;5.35;;
52972;SDS011;38837;48.916;2.336;2023-07-31T07:07:27;12.27;;;5.18;;
52972;SDS011;38837;48.916;2.336;2023-07-31T07:09:29;15.00;;;4.47;;
52972;SDS011;38837;48.916;2.336;2023-07-31T07:11:31;14.80;;;5.82;;
52972;SDS011;38837;48.916;2.336;2023-07-31T07:13:33;11.00;;;5.10;;
52972;SDS011;38837;48.916;2.336;2023-07-31T07:15:36;12.82;;;5.05;;
52972;SDS011;38837;48.916;2.336;2023-07-31T07:17:38;12.63;;;4.88;;
52972;SDS011;38837;48.916;2.336;2023-07-31T07:19:40;16.63;;;5.05;;
52972;SDS011;38837;48.916;2.336;2023-07-31T07:21:43;12.20;;;5.07;;
52972;SDS011;38837;48.916;2.336;2023-07-31T07:23:45;13.73;;;5.40;;
52972;SDS011;38837;48.916;2.336;2023-07-31T07:25:47;11.32;;;5.53;;
52972;SDS011;38837;48.916;2.336;2023-07-31T07:27:49;11.05;;;4.90;;
52972;SDS011;38837;48.916;2.336;2023-07-31T07:29:51;10.45;;;4.50;;
52972;SDS011;38837;48.916;2.336;2023-07-31T07:31:55;12.70;;;5.25;;
52972;SDS011;38837;48.916;2.336;2023-07-31T07:33:57;13.57;;;5.75;;
52972;SDS011;38837;48.916;2.336;2023-07-31T07:36:00;15.32;;;5.57;;
52972;SDS011;38837;48.916;2.336;2023-07-31T07:38:03;11.23;;;5.50;;
52972;SDS011;38837;48.916;2.336;2023-07-31T07:40:05;11.65;;;5.43;;
52972;SDS011;38837;48.916;2.336;2023-07-31T07:42:07;18.67;;;5.60;;
52972;SDS011;38837;48.916;2.336;2023-07-31T07:44:09;15.27;;;5.00;;
52972;SDS011;38837;48.916;2.336;2023-07-31T07:46:11;12.95;;;5.18;;
52972;SDS011;38837;48.916;2.336;2023-07-31T07:48:13;13.52;;;5.18;;
52972;SDS011;38837;48.916;2.336;2023-07-31T07:50:16;11.50;;;4.93;;
52972;SDS011;38837;48.916;2.336;2023-07-31T07:52:18;16.08;;;5.88;;
52972;SDS011;38837;48.916;2.336;2023-07-31T07:54:20;12.77;;;4.80;;
52972;SDS011;38837;48.916;2.336;2023-07-31T07:56:23;10.68;;;4.95;;
52972;SDS011;38837;48.916;2.336;2023-07-31T07:58:27;12.13;;;5.13;;
52972;SDS011;38837;48.916;2.336;2023-07-31T08:00:29;14.82;;;5.55;;
52972;SDS011;38837;48.916;2.336;2023-07-31T08:02:32;10.60;;;4.45;;
52972;SDS011;38837;48.916;2.336;2023-07-31T08:04:33;10.85;;;5.03;;
52972;SDS011;38837;48.916;2.336;2023-07-31T08:06:36;15.02;;;4.93;;
52972;SDS011;38837;48.916;2.336;2023-07-31T08:08:38;14.80;;;5.68;;
52972;SDS011;38837;48.916;2.336;2023-07-31T08:10:40;11.95;;;5.10;;
52972;SDS011;38837;48.916;2.336;2023-07-31T08:12:42;14.07;;;5.20;;
52972;SDS011;38837;48.916;2.336;2023-07-31T08:14:44;12.85;;;4.97;;
52972;SDS011;38837;48.916;2.336;2023-07-31T08:16:46;13.63;;;5.22;;
52972;SDS011;38837;48.916;2.336;2023-07-31T08:18:48;10.30;;;4.45;;
52972;SDS011;38837;48.916;2.336;2023-07-31T08:20:50;12.52;;;5.20;;
52972;SDS011;38837;48.916;2.336;2023-07-31T08:22:52;10.35;;;5.15;;
52972;SDS011;38837;48.916;2.336;2023-07-31T08:24:54;12.60;;;4.78;;
52972;SDS011;38837;48.916;2.336;2023-07-31T08:26:56;10.93;;;4.70;;
52972;SDS011;38837;48.916;2.336;2023-07-31T08:28:57;9.27;;;4.32;;
52972;SDS011;38837;48.916;2.336;2023-07-31T08:31:00;13.93;;;4.88;;
52972;SDS011;38837;48.916;2.336;2023-07-31T08:33:02;16.83;;;5.85;;
52972;SDS011;38837;48.916;2.336;2023-07-31T08:35:04;13.15;;;5.35;;
52972;SDS011;38837;48.916;2.336;2023-07-31T08:37:06;14.50;;;5.75;;
52972;SDS011;38837;48.916;2.336;2023-07-31T08:39:08;11.30;;;5.10;;
52972;SDS011;38837;48.916;2.336;2023-07-31T08:41:10;10.55;;;4.47;;
52972;SDS011;38837;48.916;2.336;2023-07-31T08:43:12;10.70;;;4.40;;
52972;SDS011;38837;48.916;2.336;2023-07-31T08:45:17;9.55;;;5.00;;
52972;SDS011;38837;48.916;2.336;2023-07-31T08:47:21;10.23;;;4.50;;
52972;SDS011;38837;48.916;2.336;2023-07-31T08:49:23;9.15;;;4.80;;
52972;SDS011;38837;48.916;2.336;2023-07-31T08:51:26;9.40;;;5.05;;
52972;SDS011;38837;48.916;2.336;2023-07-31T08:53:28;13.27;;;4.90;;
52972;SDS011;38837;48.916;2.336;2023-07-31T08:55:30;13.48;;;4.82;;
52972;SDS011;38837;48.916;2.336;2023-07-31T08:57:34;14.90;;;4.88;;
52972;SDS011;38837;48.916;2.336;2023-07-31T08:59:39;13.25;;;5.15;;
52972;SDS011;38837;48.916;2.336;2023-07-31T09:01:43;16.70;;;5.63;;
52972;SDS011;38837;48.916;2.336;2023-07-31T09:03:50;11.32;;;4.70;;
52972;SDS011;38837;48.916;2.336;2023-07-31T09:05:53;8.63;;;3.78;;
52972;SDS011;38837;48.916;2.336;2023-07-31T09:09:59;11.15;;;4.90;;
52972;SDS011;38837;48.916;2.336;2023-07-31T09:12:01;16.20;;;5.43;;
52972;SDS011;38837;48.916;2.336;2023-07-31T09:14:04;9.88;;;4.30;;
52972;SDS011;38837;48.916;2.336;2023-07-31T09:16:10;15.35;;;4.78;;
52972;SDS011;38837;48.916;2.336;2023-07-31T09:18:12;10.07;;;4.47;;
52972;SDS011;38837;48.916;2.336;2023-07-31T09:20:19;15.48;;;4.72;;
52972;SDS011;38837;48.916;2.336;2023-07-31T09:22:56;13.95;;;4.95;;
52972;SDS011;38837;48.916;2.336;2023-07-31T09:24:50;12.73;;;4.07;;
52972;SDS011;38837;48.916;2.336;2023-07-31T09:26:53;9.40;;;5.07;;
52972;SDS011;38837;48.916;2.336;2023-07-31T09:29:00;11.88;;;5.32;;
52972;SDS011;38837;48.916;2.336;2023-07-31T09:31:04;15.07;;;5.13;;
52972;SDS011;38837;48.916;2.336;2023-07-31T09:33:06;12.32;;;4.22;;
52972;SDS011;38837;48.916;2.336;2023-07-31T09:35:14;10.43;;;4.50;;
52972;SDS011;38837;48.916;2.336;2023-07-31T09:37:33;12.85;;;4.95;;
52972;SDS011;38837;48.916;2.336;2023-07-31T09:39:45;11.15;;;4.30;;
52972;SDS011;38837;48.916;2.336;2023-07-31T09:41:53;10.93;;;4.28;;
52972;SDS011;38837;48.916;2.336;2023-07-31T09:43:56;11.95;;;4.35;;
52972;SDS011;38837;48.916;2.336;2023-07-31T09:45:58;10.38;;;4.30;;
52972;SDS011;38837;48.916;2.336;2023-07-31T09:47:59;14.95;;;4.72;;
52972;SDS011;38837;48.916;2.336;2023-07-31T09:50:04;11.40;;;4.93;;
52972;SDS011;38837;48.916;2.336;2023-07-31T09:52:11;14.82;;;5.15;;
52972;SDS011;38837;48.916;2.336;2023-07-31T09:54:15;7.85;;;4.15;;
52972;SDS011;38837;48.916;2.336;2023-07-31T09:56:18;11.20;;;4.17;;
52972;SDS011;38837;48.916;2.336;2023-07-31T09:58:22;16.58;;;4.32;;
52972;SDS011;38837;48.916;2.336;2023-07-31T10:00:24;11.40;;;4.13;;
52972;SDS011;38837;48.916;2.336;2023-07-31T10:02:29;8.40;;;4.25;;
52972;SDS011;38837;48.916;2.336;2023-07-31T10:04:33;13.90;;;4.68;;
52972;SDS011;38837;48.916;2.336;2023-07-31T10:06:35;12.50;;;3.80;;
52972;SDS011;38837;48.916;2.336;2023-07-31T10:08:39;9.75;;;4.57;;
52972;SDS011;38837;48.916;2.336;2023-07-31T10:10:43;8.68;;;4.38;;
52972;SDS011;38837;48.916;2.336;2023-07-31T10:12:45;12.38;;;4.88;;
52972;SDS011;38837;48.916;2.336;2023-07-31T10:14:49;8.00;;;4.10;;
52972;SDS011;38837;48.916;2.336;2023-07-31T10:16:53;9.32;;;4.28;;
52972;SDS011;38837;48.916;2.336;2023-07-31T10:18:55;11.80;;;4.28;;
52972;SDS011;38837;48.916;2.336;2023-07-31T10:20:57;11.40;;;4.50;;
52972;SDS011;38837;48.916;2.336;2023-07-31T10:22:59;8.80;;;4.57;;
52972;SDS011;38837;48.916;2.336;2023-07-31T10:25:02;15.68;;;5.03;;
52972;SDS011;38837;48.916;2.336;2023-07-31T10:27:04;15.55;;;4.53;;
52972;SDS011;38837;48.916;2.336;2023-07-31T10:29:08;10.57;;;4.77;;
52972;SDS011;38837;48.916;2.336;2023-07-31T10:31:10;10.75;;;4.25;;
52972;SDS011;38837;48.916;2.336;2023-07-31T10:33:12;10.38;;;4.25;;
52972;SDS011;38837;48.916;2.336;2023-07-31T10:35:14;10.55;;;4.82;;
52972;SDS011;38837;48.916;2.336;2023-07-31T10:37:21;12.52;;;4.88;;
52972;SDS011;38837;48.916;2.336;2023-07-31T10:39:37;11.40;;;4.38;;
52972;SDS011;38837;48.916;2.336;2023-07-31T10:41:40;11.13;;;4.93;;
52972;SDS011;38837;48.916;2.336;2023-07-31T10:43:42;8.10;;;4.55;;
52972;SDS011;38837;48.916;2.336;2023-07-31T10:45:47;10.38;;;4.53;;
52972;SDS011;38837;48.916;2.336;2023-07-31T10:47:51;8.15;;;4.10;;
52972;SDS011;38837;48.916;2.336;2023-07-31T10:52:21;10.15;;;4.30;;
52972;SDS011;38837;48.916;2.336;2023-07-31T10:54:28;9.60;;;4.50;;
52972;SDS011;38837;48.916;2.336;2023-07-31T10:56:30;10.15;;;4.47;;
52972;SDS011;38837;48.916;2.336;2023-07-31T10:58:41;10.48;;;4.43;;
52972;SDS011;38837;48.916;2.336;2023-07-31T11:00:46;9.90;;;4.30;;
52972;SDS011;38837;48.916;2.336;2023-07-31T11:03:41;9.05;;;4.82;;
52972;SDS011;38837;48.916;2.336;2023-07-31T11:05:20;11.45;;;4.05;;
52972;SDS011;38837;48.916;2.336;2023-07-31T11:07:24;14.40;;;4.43;;
52972;SDS011;38837;48.916;2.336;2023-07-31T11:09:29;6.97;;;3.55;;
52972;SDS011;38837;48.916;2.336;2023-07-31T11:11:33;9.52;;;4.18;;
52972;SDS011;38837;48.916;2.336;2023-07-31T11:13:42;8.95;;;4.10;;
52972;SDS011;38837;48.916;2.336;2023-07-31T11:15:53;8.25;;;4.05;;
52972;SDS011;38837;48.916;2.336;2023-07-31T11:17:55;8.10;;;4.25;;
52972;SDS011;38837;48.916;2.336;2023-07-31T11:19:59;9.43;;;4.13;;
52972;SDS011;38837;48.916;2.336;2023-07-31T11:22:01;10.57;;;4.50;;
52972;SDS011;38837;48.916;2.336;2023-07-31T11:24:03;7.68;;;4.25;;
52972;SDS011;38837;48.916;2.336;2023-07-31T11:26:06;10.25;;;4.70;;
52972;SDS011;38837;48.916;2.336;2023-07-31T11:28:09;7.90;;;4.32;;
52972;SDS011;38837;48.916;2.336;2023-07-31T11:30:13;12.82;;;4.82;;
52972;SDS011;38837;48.916;2.336;2023-07-31T11:32:17;7.82;;;4.03;;
52972;SDS011;38837;48.916;2.336;2023-07-31T11:34:20;13.35;;;4.78;;
52972;SDS011;38837;48.916;2.336;2023-07-31T11:36:22;13.02;;;4.93;;
52972;SDS011;38837;48.916;2.336;2023-07-31T11:38:24;10.05;;;4.38;;
52972;SDS011;38837;48.916;2.336;2023-07-31T11:40:31;10.65;;;4.38;;
52972;SDS011;38837;48.916;2.336;2023-07-31T11:42:34;11.77;;;5.10;;
52972;SDS011;38837;48.916;2.336;2023-07-31T11:44:38;12.65;;;5.88;;
52972;SDS011;38837;48.916;2.336;2023-07-31T11:46:42;11.20;;;4.97;;
52972;SDS011;38837;48.916;2.336;2023-07-31T11:48:45;11.80;;;4.97;;
52972;SDS011;38837;48.916;2.336;2023-07-31T11:50:47;11.85;;;4.95;;
52972;SDS011;38837;48.916;2.336;2023-07-31T11:52:52;8.02;;;4.13;;
52972;SDS011;38837;48.916;2.336;2023-07-31T11:55:00;12.82;;;4.63;;
52972;SDS011;38837;48.916;2.336;2023-07-31T11:57:03;13.77;;;5.25;;
52972;SDS011;38837;48.916;2.336;2023-07-31T11:59:06;14.63;;;5.63;;
52972;SDS011;38837;48.916;2.336;2023-07-31T12:01:09;14.63;;;4.93;;
52972;SDS011;38837;48.916;2.336;2023-07-31T12:03:11;12.32;;;5.75;;
52972;SDS011;38837;48.916;2.336;2023-07-31T12:05:13;9.25;;;5.28;;
52972;SDS011;38837;48.916;2.336;2023-07-31T12:07:15;13.70;;;6.00;;
52972;SDS011;38837;48.916;2.336;2023-07-31T12:09:17;16.20;;;5.43;;
52972;SDS011;38837;48.916;2.336;2023-07-31T12:11:19;13.18;;;5.55;;
52972;SDS011;38837;48.916;2.336;2023-07-31T12:13:22;13.48;;;4.88;;
52972;SDS011;38837;48.916;2.336;2023-07-31T12:17:37;13.25;;;6.25;;
52972;SDS011;38837;48.916;2.336;2023-07-31T12:19:38;12.60;;;5.82;;
52972;SDS011;38837;48.916;2.336;2023-07-31T12:21:41;12.48;;;5.55;;
52972;SDS011;38837;48.916;2.336;2023-07-31T12:23:43;13.93;;;5.95;;
52972;SDS011;38837;48.916;2.336;2023-07-31T12:25:45;15.85;;;6.13;;
52972;SDS011;38837;48.916;2.336;2023-07-31T12:27:47;11.75;;;4.75;;